Time;durP1;ratioP1;P1;durP2;ratioP2;P2;SDS_P1;SDS_P2;PMS_P1;PMS_P2;Temp;Humidity;BMP_temperature;BMP_pressure;BME280_temperature;BME280_humidity;BME280_pressure;Samples;Min_cycle;Max_cycle;Signal;HPM_P1;HPM_P2
2022/08/08 00:00:10;;;;;;;10.35;5.28;;;;;;;23.96;58.43;99822.81;5102118;28;20426;-74
2022/08/08 00:03:00;;;;;;;8.38;5.75;;;;;;;24.10;58.01;99818.28;5113035;28;20057;-70
2022/08/08 00:06:11;;;;;;;7.55;5.03;;;;;;;24.23;57.78;99817.47;5112787;28;20118;-74
2022/08/08 00:08:55;;;;;;;7.60;5.00;;;;;;;24.28;57.42;99820.41;5102455;27;20035;-69
2022/08/08 00:11:26;;;;;;;8.25;6.03;;;;;;;24.29;57.72;99815.81;5104706;28;20494;-69
2022/08/08 00:14:03;;;;;;;11.20;6.15;;;;;;;24.23;57.78;99812.06;5113528;28;20397;-71
2022/08/08 00:16:46;;;;;;;10.20;5.20;;;;;;;24.15;58.08;99806.88;5114097;27;20035;-70
2022/08/08 00:19:26;;;;;;;8.60;5.05;;;;;;;24.17;57.93;99818.31;5112142;28;20444;-70
2022/08/08 00:22:17;;;;;;;5.78;4.80;;;;;;;24.25;57.75;99823.53;5096981;28;20031;-70
2022/08/08 00:24:47;;;;;;;6.82;5.70;;;;;;;24.29;57.23;99827.50;5113850;28;20031;-70
2022/08/08 00:27:15;;;;;;;9.10;7.17;;;;;;;24.27;57.69;99824.16;5113847;28;20031;-70
2022/08/08 00:30:05;;;;;;;5.97;4.97;;;;;;;24.26;57.50;99818.97;5111530;28;20036;-70
2022/08/08 00:32:42;;;;;;;8.15;6.70;;;;;;;24.29;57.20;99826.63;5112259;28;20092;-70
2022/08/08 00:35:33;;;;;;;10.38;6.03;;;;;;;24.27;57.04;99821.44;5113340;28;20049;-70
2022/08/08 00:37:59;;;;;;;12.18;6.55;;;;;;;24.21;57.26;99825.81;5112414;28;20027;-69
2022/08/08 00:40:27;;;;;;;10.13;5.88;;;;;;;24.15;57.51;99831.19;5111851;28;20398;-70
2022/08/08 00:43:10;;;;;;;5.80;4.38;;;;;;;24.12;57.17;99834.28;5112791;28;20035;-70
2022/08/08 00:45:55;;;;;;;6.95;4.88;;;;;;;24.17;57.65;99832.66;5113375;28;20023;-70
2022/08/08 00:48:41;;;;;;;5.60;5.00;;;;;;;24.28;57.48;99833.09;5103108;28;20023;-70
2022/08/08 00:51:26;;;;;;;10.73;6.75;;;;;;;24.36;57.42;99828.31;5112641;28;20023;-70
2022/08/08 00:54:32;;;;;;;7.90;5.88;;;;;;;24.33;57.43;99830.59;5111451;28;20093;-70
2022/08/08 00:57:16;;;;;;;9.45;5.63;;;;;;;24.37;57.35;99829.19;5105880;27;20063;-72
2022/08/08 00:59:53;;;;;;;9.50;6.75;;;;;;;24.44;57.32;99827.31;5117408;27;20466;-72
2022/08/08 01:02:57;;;;;;;7.80;5.72;;;;;;;24.51;56.75;99836.28;5124594;27;20463;-72
2022/08/08 01:06:11;;;;;;;8.25;7.18;;;;;;;24.48;56.78;99830.44;5050083;28;20133;-71
2022/08/08 01:09:04;;;;;;;6.78;4.60;;;;;;;24.40;57.25;99831.47;5113395;28;20031;-71
2022/08/08 01:11:46;;;;;;;9.07;7.35;;;;;;;24.36;57.25;99828.31;5113666;28;20035;-71
2022/08/08 01:14:26;;;;;;;9.85;5.72;;;;;;;24.40;57.13;99839.59;5112279;28;20042;-70
2022/08/08 01:17:16;;;;;;;8.55;6.55;;;;;;;24.42;56.96;99829.38;5112933;28;20111;-71
2022/08/08 01:20:06;;;;;;;7.82;6.38;;;;;;;24.31;57.20;99835.38;5112459;28;20039;-70
2022/08/08 01:22:43;;;;;;;7.70;6.90;;;;;;;24.16;57.63;99830.16;5112024;28;20035;-71
2022/08/08 01:25:46;;;;;;;7.00;6.15;;;;;;;24.03;58.18;99831.78;5113256;28;20036;-71
2022/08/08 01:28:36;;;;;;;11.88;7.53;;;;;;;23.94;58.54;99835.66;5112454;28;20036;-71
2022/08/08 01:31:27;;;;;;;10.90;9.23;;;;;;;23.88;58.63;99831.88;5113244;28;20482;-70
2022/08/08 01:34:52;;;;;;;8.00;6.57;;;;;;;23.88;58.59;99831.88;5074542;28;20070;-72
2022/08/08 01:37:48;;;;;;;12.13;10.57;;;;;;;23.81;58.72;99835.59;5088630;28;20133;-73
2022/08/08 01:40:22;;;;;;;6.72;5.97;;;;;;;23.83;58.33;99822.72;5109657;28;20039;-73
2022/08/08 01:42:57;;;;;;;9.20;7.78;;;;;;;23.85;58.20;99824.16;5112623;28;20039;-73
2022/08/08 01:45:54;;;;;;;9.80;6.90;;;;;;;23.91;58.06;99826.09;5112792;28;20035;-72
2022/08/08 01:48:28;;;;;;;11.40;6.82;;;;;;;23.95;57.92;99836.50;5113271;28;20028;-73
2022/08/08 01:51:12;;;;;;;12.73;10.82;;;;;;;23.95;58.62;99828.38;5112112;28;20028;-72
2022/08/08 01:54:01;;;;;;;9.27;7.88;;;;;;;23.93;58.21;99823.16;5112879;28;20039;-73
2022/08/08 01:56:41;;;;;;;12.18;9.82;;;;;;;23.85;58.19;99816.06;5112828;28;20039;-72
2022/08/08 01:59:34;;;;;;;12.38;10.40;;;;;;;23.75;58.92;99826.41;5112584;28;20039;-72
2022/08/08 02:02:28;;;;;;;14.70;9.07;;;;;;;23.62;59.27;99822.63;5112584;28;20379;-71
2022/08/08 02:05:39;;;;;;;10.00;6.13;;;;;;;23.53;59.59;99822.97;5067329;28;20071;-71
2022/08/08 02:08:45;;;;;;;6.72;6.03;;;;;;;23.61;58.99;99830.91;5098887;28;20606;-71
2022/08/08 02:11:30;;;;;;;7.82;6.78;;;;;;;23.68;58.70;99828.25;5112688;28;20060;-70
2022/08/08 02:14:11;;;;;;;11.52;9.00;;;;;;;23.74;58.49;99833.72;5112747;28;20047;-71
2022/08/08 02:16:52;;;;;;;12.18;8.13;;;;;;;23.70;58.61;99829.72;5113007;28;20031;-71
2022/08/08 02:19:17;;;;;;;10.05;8.00;;;;;;;23.62;58.72;99833.44;5111695;28;20528;-71
2022/08/08 02:25:10;;;;;;;10.52;6.82;;;;;;;23.56;58.73;99828.81;5112888;28;20046;-73
2022/08/08 02:28:00;;;;;;;7.05;6.35;;;;;;;23.59;58.84;99827.59;5092352;28;20574;-72
2022/08/08 02:30:44;;;;;;;8.05;6.00;;;;;;;23.58;58.59;99834.84;5084585;28;20036;-72
2022/08/08 02:33:13;;;;;;;8.73;5.93;;;;;;;23.62;58.36;99836.13;5092223;28;20119;-72
2022/08/08 02:35:52;;;;;;;6.60;5.05;;;;;;;23.57;58.84;99835.06;5094294;28;20031;-72
2022/08/08 02:38:38;;;;;;;9.93;6.72;;;;;;;23.53;58.65;99828.38;5101763;28;20105;-72
2022/08/08 02:41:31;;;;;;;13.70;5.90;;;;;;;23.52;58.54;99834.81;5095483;28;20067;-72
2022/08/08 02:44:24;;;;;;;6.47;4.40;;;;;;;23.50;58.50;99851.22;5095718;28;20036;-71
2022/08/08 02:47:04;;;;;;;7.28;5.53;;;;;;;23.47;58.84;99843.50;5095347;28;20379;-71
2022/08/08 02:49:44;;;;;;;8.50;5.63;;;;;;;23.44;58.92;99852.00;5105759;28;20028;-71
2022/08/08 02:52:16;;;;;;;7.88;5.40;;;;;;;23.39;58.75;99859.84;5115749;28;20490;-71
2022/08/08 02:55:26;;;;;;;11.43;5.65;;;;;;;23.36;58.87;99862.97;5115807;28;20398;-70
2022/08/08 02:58:26;;;;;;;7.32;4.93;;;;;;;23.39;58.51;99866.09;5093468;28;20597;-70
2022/08/08 03:01:14;;;;;;;7.85;5.65;;;;;;;23.44;58.63;99866.34;5049522;28;20047;-71
2022/08/08 03:04:13;;;;;;;5.88;4.97;;;;;;;23.45;58.40;99876.09;5102596;28;20104;-71
2022/08/08 03:07:13;;;;;;;4.97;3.53;;;;;;;23.45;58.08;99868.00;5115694;28;20394;-71
2022/08/08 03:09:56;;;;;;;5.72;3.63;;;;;;;23.50;58.02;99871.97;5114820;28;20035;-71
2022/08/08 03:12:47;;;;;;;4.35;3.30;;;;;;;23.54;58.33;99878.66;5115654;28;20059;-71
2022/08/08 03:15:49;;;;;;;5.03;2.90;;;;;;;23.61;57.57;99877.69;5115172;28;20089;-71
2022/08/08 03:18:23;;;;;;;9.23;4.00;;;;;;;23.63;57.49;99882.88;5114853;28;20046;-71
2022/08/08 03:20:49;;;;;;;6.68;4.43;;;;;;;23.57;57.85;99878.28;5097076;28;20131;-71
2022/08/08 03:23:16;;;;;;;6.30;3.50;;;;;;;23.42;58.09;99881.91;5114552;28;21038;-71
2022/08/08 03:25:44;;;;;;;6.47;3.03;;;;;;;23.41;58.10;99891.06;5115195;28;20114;-71
2022/08/08 03:28:29;;;;;;;7.75;3.78;;;;;;;23.46;57.61;99893.97;5115198;28;20118;-71
2022/08/08 03:30:54;;;;;;;4.07;3.22;;;;;;;23.49;57.91;99897.31;5115282;28;20043;-72
2022/08/08 03:33:20;;;;;;;6.00;3.40;;;;;;;23.55;57.43;99901.94;5096660;28;20039;-72
2022/08/08 03:35:47;;;;;;;4.22;2.70;;;;;;;23.46;57.49;99891.28;5114202;28;20075;-71
2022/08/08 03:38:14;;;;;;;4.68;2.20;;;;;;;23.47;57.60;99890.25;5114769;28;20027;-71
2022/08/08 03:40:39;;;;;;;3.83;2.80;;;;;;;23.57;57.24;99898.00;5114926;28;20035;-71
2022/08/08 03:43:09;;;;;;;4.15;2.63;;;;;;;23.53;57.37;99896.72;5114321;28;20042;-71
2022/08/08 03:45:35;;;;;;;5.03;2.00;;;;;;;23.35;58.01;99901.81;5113516;28;20123;-72
2022/08/08 03:48:07;;;;;;;4.57;2.50;;;;;;;23.27;58.11;99911.69;5113935;28;20443;-72
2022/08/08 03:50:34;;;;;;;5.22;2.38;;;;;;;23.27;57.67;99911.69;5100486;28;20461;-71
2022/08/08 03:53:12;;;;;;;5.53;2.75;;;;;;;23.33;57.45;99915.47;5114325;28;20035;-71
2022/08/08 03:55:40;;;;;;;5.15;2.50;;;;;;;23.28;57.53;99921.47;5114423;28;20063;-71
2022/08/08 03:58:06;;;;;;;3.22;2.25;;;;;;;23.30;57.66;99926.69;5113610;28;20059;-70
2022/08/08 04:00:32;;;;;;;8.85;3.05;;;;;;;23.35;57.24;99920.69;5113745;28;20507;-71
2022/08/08 04:03:01;;;;;;;6.45;2.78;;;;;;;23.36;57.08;99931.28;5114267;28;20051;-72
2022/08/08 04:05:29;;;;;;;2.67;2.00;;;;;;;23.36;57.03;99930.47;5114199;28;20114;-71
2022/08/08 04:07:56;;;;;;;6.85;3.25;;;;;;;23.30;57.01;99932.91;5114349;28;20132;-71
2022/08/08 04:10:21;;;;;;;4.75;2.90;;;;;;;23.28;56.96;99928.75;5113727;28;20061;-72
2022/08/08 04:12:47;;;;;;;2.22;1.67;;;;;;;23.36;56.87;99931.28;5114288;28;20039;-72
2022/08/08 04:15:12;;;;;;;7.82;2.58;;;;;;;23.41;56.81;99923.44;5114327;28;20036;-72
2022/08/08 04:17:38;;;;;;;8.10;3.03;;;;;;;23.40;56.62;99926.34;5114246;28;20036;-70
2022/08/08 04:20:04;;;;;;;5.47;2.50;;;;;;;23.37;56.96;99932.97;5113808;28;20036;-70
2022/08/08 04:22:30;;;;;;;5.05;2.63;;;;;;;23.35;56.94;99940.41;5114161;28;20058;-70
2022/08/08 04:24:56;;;;;;;4.60;3.10;;;;;;;23.27;56.69;99940.56;5113073;28;20054;-70
2022/08/08 04:27:22;;;;;;;6.93;3.20;;;;;;;23.20;56.76;99936.94;5114387;28;20035;-70
2022/08/08 04:29:47;;;;;;;5.68;3.15;;;;;;;23.15;56.89;99932.13;5113483;28;20542;-70
2022/08/08 04:32:13;;;;;;;4.68;2.60;;;;;;;23.09;56.83;99941.84;5113164;28;20470;-71
2022/08/08 04:34:41;;;;;;;4.00;2.35;;;;;;;23.13;56.85;99932.31;5113284;28;20036;-70
2022/08/08 04:37:07;;;;;;;9.43;3.20;;;;;;;23.13;56.74;99937.72;5113607;28;20046;-70
2022/08/08 04:39:32;;;;;;;11.05;3.33;;;;;;;23.07;56.64;99948.47;5111207;28;20036;-70
2022/08/08 04:41:58;;;;;;;4.57;1.92;;;;;;;23.04;57.18;99943.44;5113840;28;20077;-70
2022/08/08 04:44:24;;;;;;;6.03;3.15;;;;;;;23.07;56.70;99951.16;5113020;28;20741;-70
2022/08/08 04:46:49;;;;;;;9.13;3.28;;;;;;;22.97;56.96;99948.78;5113112;28;20081;-71
2022/08/08 04:49:14;;;;;;;4.55;2.67;;;;;;;22.91;56.93;99958.47;5113024;28;20035;-71
2022/08/08 04:51:40;;;;;;;4.13;2.00;;;;;;;22.91;57.20;99955.78;5113415;28;20123;-71
2022/08/08 04:54:05;;;;;;;3.33;1.95;;;;;;;23.07;56.73;99964.66;5112861;28;20031;-71
2022/08/08 04:56:31;;;;;;;4.75;2.10;;;;;;;23.22;56.52;99964.59;5113216;28;20039;-72
2022/08/08 04:58:56;;;;;;;7.72;2.83;;;;;;;23.22;56.20;99961.91;5112599;28;20482;-69
2022/08/08 05:01:22;;;;;;;9.27;2.95;;;;;;;23.08;55.85;99960.94;5113296;28;20027;-68
2022/08/08 05:03:48;;;;;;;5.68;3.00;;;;;;;22.87;56.32;99959.88;5112419;28;20039;-68
2022/08/08 05:06:13;;;;;;;10.20;2.65;;;;;;;22.73;56.68;99958.06;5112944;28;20031;-69
2022/08/08 05:08:40;;;;;;;9.38;2.55;;;;;;;22.68;56.88;99954.06;5094847;28;20062;-69
2022/08/08 05:11:06;;;;;;;3.72;2.30;;;;;;;22.62;56.77;99952.16;5113169;28;20035;-69
2022/08/08 05:13:32;;;;;;;6.47;2.20;;;;;;;22.70;56.84;99959.28;5112410;28;20509;-69
2022/08/08 05:15:58;;;;;;;4.90;1.55;;;;;;;22.88;56.39;99958.84;5112796;28;20036;-69
2022/08/08 05:18:23;;;;;;;3.88;2.55;;;;;;;22.97;55.71;99952.28;5113086;28;20046;-69
2022/08/08 05:20:49;;;;;;;6.88;3.38;;;;;;;22.85;55.90;99951.13;5113481;28;20036;-69
2022/08/08 05:23:14;;;;;;;3.47;2.75;;;;;;;22.76;56.01;99958.50;5112582;28;20114;-69
2022/08/08 05:25:40;;;;;;;3.70;2.50;;;;;;;22.74;56.09;99947.06;5112118;28;20085;-69
2022/08/08 05:28:06;;;;;;;7.90;3.45;;;;;;;22.66;56.03;99949.91;5103288;28;20031;-69
2022/08/08 05:30:31;;;;;;;3.28;2.15;;;;;;;22.65;56.40;99951.75;5112824;28;20044;-69
2022/08/08 05:32:57;;;;;;;3.10;2.00;;;;;;;22.76;56.04;99957.69;5113004;28;20031;-71
2022/08/08 05:35:22;;;;;;;6.97;2.80;;;;;;;22.83;55.61;99954.03;5113151;28;20394;-68
2022/08/08 05:38:02;;;;;;;4.78;2.25;;;;;;;22.90;55.43;99954.09;5112965;28;20410;-70
2022/08/08 05:40:28;;;;;;;4.05;1.73;;;;;;;22.95;55.42;99956.22;5092675;28;20035;-70
2022/08/08 05:43:04;;;;;;;3.97;1.70;;;;;;;23.10;55.16;99969.63;5112579;28;20490;-70
2022/08/08 05:45:36;;;;;;;2.55;1.75;;;;;;;23.16;54.93;99964.31;5092736;28;20047;-70
2022/08/08 05:48:04;;;;;;;3.80;1.60;;;;;;;23.13;55.46;99964.72;5096434;28;20024;-70
2022/08/08 05:50:30;;;;;;;3.95;2.75;;;;;;;23.16;54.74;99972.41;5113003;28;20429;-70
2022/08/08 05:52:56;;;;;;;2.90;2.20;;;;;;;23.14;55.13;99970.94;5112651;28;20031;-70
2022/08/08 05:55:22;;;;;;;4.13;2.35;;;;;;;23.16;55.29;99975.09;5112884;28;20047;-70
2022/08/08 05:57:51;;;;;;;3.40;2.50;;;;;;;23.28;55.13;99974.66;5111688;28;20048;-71
2022/08/08 06:00:17;;;;;;;6.55;2.20;;;;;;;23.36;54.56;99979.06;5112225;28;20118;-70
2022/08/08 06:05:31;;;;;;;2.67;1.65;;;;;;;23.42;54.57;99971.03;5113089;28;20126;-70
2022/08/08 06:07:58;;;;;;;8.00;2.80;;;;;;;23.54;54.16;99971.31;5112070;28;20023;-70
2022/08/08 06:10:27;;;;;;;4.15;3.15;;;;;;;23.56;53.85;99976.53;5116801;28;20062;-70
2022/08/08 06:12:54;;;;;;;5.88;2.60;;;;;;;23.54;54.49;99975.91;5116101;28;20106;-69
2022/08/08 06:15:20;;;;;;;6.50;3.90;;;;;;;23.46;54.48;99988.50;5116541;28;20114;-69
2022/08/08 06:17:46;;;;;;;6.93;3.47;;;;;;;23.34;54.68;99981.13;5115518;28;20127;-69
2022/08/08 06:20:12;;;;;;;5.32;3.30;;;;;;;23.40;54.39;100002.78;5116079;28;20043;-69
2022/08/08 06:22:39;;;;;;;2.58;1.80;;;;;;;23.51;54.41;99997.88;5116164;28;20087;-69
2022/08/08 06:25:05;;;;;;;5.47;3.20;;;;;;;23.66;54.01;99995.94;5115073;28;20023;-70
2022/08/08 06:27:52;;;;;;;4.63;2.53;;;;;;;23.66;53.81;99995.13;5115955;28;20069;-69
2022/08/08 06:30:18;;;;;;;4.43;2.58;;;;;;;23.64;54.31;99998.00;5116625;28;20382;-69
2022/08/08 06:32:50;;;;;;;8.13;4.45;;;;;;;23.67;53.80;99992.19;5115791;28;20106;-69
2022/08/08 06:35:17;;;;;;;7.22;3.30;;;;;;;23.66;53.92;99992.41;5116047;28;20393;-70
2022/08/08 06:37:46;;;;;;;5.88;4.13;;;;;;;23.71;53.84;100003.44;5115724;28;20038;-70
2022/08/08 06:40:14;;;;;;;10.15;4.32;;;;;;;23.74;53.62;100003.91;5115349;28;20040;-70
2022/08/08 06:42:44;;;;;;;7.35;4.75;;;;;;;23.66;53.72;100004.03;5097541;28;20110;-69
2022/08/08 06:45:11;;;;;;;6.28;2.78;;;;;;;23.67;53.68;100013.00;5116485;28;20031;-69
2022/08/08 06:47:37;;;;;;;5.53;3.38;;;;;;;23.72;53.73;100021.31;5115239;28;20032;-70
2022/08/08 06:50:04;;;;;;;4.32;2.28;;;;;;;23.69;53.63;100011.75;5114905;28;20108;-69
2022/08/08 06:52:31;;;;;;;11.68;3.50;;;;;;;23.72;53.53;100018.63;5115943;28;20027;-70
2022/08/08 06:54:59;;;;;;;3.60;2.60;;;;;;;23.71;53.62;100014.25;5115944;28;20367;-70
2022/08/08 06:57:25;;;;;;;3.17;2.38;;;;;;;23.74;53.65;100016.56;5115655;28;20059;-70
2022/08/08 06:59:52;;;;;;;4.38;2.15;;;;;;;23.81;53.47;100017.47;5114502;28;20497;-70
2022/08/08 07:02:27;;;;;;;5.40;3.80;;;;;;;23.87;53.42;100018.53;5115078;28;20038;-69
2022/08/08 07:04:55;;;;;;;5.78;4.18;;;;;;;23.74;53.39;100014.72;5112357;28;20046;-70
2022/08/08 07:07:45;;;;;;;5.38;2.55;;;;;;;23.72;53.79;100016.78;5115700;28;20039;-69
2022/08/08 07:10:11;;;;;;;6.95;4.25;;;;;;;23.80;53.23;100020.34;5115132;28;20096;-69
2022/08/08 07:12:36;;;;;;;5.18;3.60;;;;;;;23.66;53.44;100020.25;5115252;28;20042;-69
2022/08/08 07:15:05;;;;;;;8.45;3.85;;;;;;;23.53;53.97;100017.44;5120030;27;20031;-69
2022/08/08 07:17:36;;;;;;;10.05;3.90;;;;;;;23.50;54.07;100010.56;5130034;27;20043;-69
2022/08/08 07:20:06;;;;;;;6.07;3.95;;;;;;;23.46;54.09;100018.19;5094286;28;20035;-71
2022/08/08 07:22:44;;;;;;;6.10;3.97;;;;;;;23.48;54.46;100015.31;5094688;28;20040;-70
2022/08/08 07:25:11;;;;;;;6.05;2.60;;;;;;;23.50;54.34;100013.25;5094743;28;20036;-71
2022/08/08 07:27:41;;;;;;;8.80;3.78;;;;;;;23.66;54.13;100025.66;5096446;28;20043;-70
2022/08/08 07:30:07;;;;;;;3.92;2.45;;;;;;;23.74;53.59;100021.97;5114647;28;20501;-70
2022/08/08 07:32:33;;;;;;;8.85;4.30;;;;;;;23.83;53.47;100020.78;5114749;28;20427;-69
2022/08/08 07:35:00;;;;;;;8.35;3.50;;;;;;;23.90;53.37;100028.94;5115078;28;20122;-69
2022/08/08 07:37:27;;;;;;;7.57;4.13;;;;;;;23.95;53.02;100018.38;5114773;28;20078;-69
2022/08/08 07:39:57;;;;;;;6.07;2.78;;;;;;;24.04;53.27;100028.03;5112728;28;20039;-70
2022/08/08 07:42:23;;;;;;;8.63;4.70;;;;;;;24.11;52.55;100030.81;5114779;28;20039;-69
2022/08/08 07:44:49;;;;;;;7.20;5.15;;;;;;;24.05;53.11;100031.59;5114735;28;20525;-70
2022/08/08 07:47:15;;;;;;;4.70;2.70;;;;;;;24.00;52.98;100039.44;5113926;28;20532;-70
2022/08/08 07:49:40;;;;;;;9.65;5.93;;;;;;;24.02;52.86;100032.81;5113779;28;20031;-70
2022/08/08 07:52:09;;;;;;;6.93;3.15;;;;;;;23.95;53.30;100034.59;5115768;27;20478;-70
2022/08/08 07:55:04;;;;;;;7.60;3.55;;;;;;;24.02;53.14;100034.69;5113636;28;20112;-70
2022/08/08 07:57:50;;;;;;;6.38;3.05;;;;;;;24.08;52.96;100031.19;5112980;28;20058;-69
2022/08/08 08:00:17;;;;;;;4.93;3.03;;;;;;;24.17;52.52;100032.69;5110249;28;20118;-69
2022/08/08 08:02:49;;;;;;;12.35;5.30;;;;;;;24.21;52.61;100035.84;5110698;28;20027;-66
2022/08/08 08:05:28;;;;;;;15.13;6.30;;;;;;;24.09;52.84;100032.88;5111229;28;20084;-69
2022/08/08 08:08:05;;;;;;;14.38;6.72;;;;;;;23.96;53.01;100035.44;5112187;28;20042;-71
2022/08/08 08:10:34;;;;;;;21.55;7.55;;;;;;;23.62;54.05;100027.06;5112186;27;20106;-69
2022/08/08 08:13:22;;;;;;;11.88;6.28;;;;;;;23.49;54.20;100026.94;5112668;28;20043;-69
2022/08/08 08:15:53;;;;;;;11.48;6.53;;;;;;;23.47;54.43;100027.97;5111822;28;20070;-68
2022/08/08 08:18:22;;;;;;;7.40;5.80;;;;;;;23.38;54.45;100023.75;5113713;28;20436;-69
2022/08/08 08:20:49;;;;;;;16.15;7.38;;;;;;;23.40;54.71;100027.09;5113894;28;20043;-69
2022/08/08 08:23:14;;;;;;;9.57;5.80;;;;;;;23.37;54.79;100023.94;5114041;28;20080;-69
2022/08/08 08:25:40;;;;;;;8.00;5.40;;;;;;;23.50;54.25;100029.47;5113953;28;20097;-69
2022/08/08 08:28:05;;;;;;;12.65;6.65;;;;;;;23.65;54.30;100029.38;5112165;28;20044;-69
2022/08/08 08:30:31;;;;;;;9.18;5.63;;;;;;;23.76;53.96;100030.72;5113910;28;20028;-69
2022/08/08 08:32:56;;;;;;;9.23;6.00;;;;;;;23.81;54.37;100030.97;5113515;28;20070;-68
2022/08/08 08:35:22;;;;;;;13.93;6.55;;;;;;;23.80;54.31;100036.56;5113545;28;20039;-68
2022/08/08 08:37:47;;;;;;;10.98;7.60;;;;;;;23.86;54.45;100031.22;5112890;28;20132;-68
2022/08/08 08:40:13;;;;;;;11.23;7.57;;;;;;;23.96;54.35;100039.00;5113679;28;20031;-68
2022/08/08 08:42:39;;;;;;;11.65;7.28;;;;;;;24.03;54.08;100029.09;5113422;28;20039;-69
2022/08/08 08:45:06;;;;;;;8.38;6.25;;;;;;;23.95;53.84;100031.91;5113497;28;20474;-69
2022/08/08 08:47:33;;;;;;;10.27;7.90;;;;;;;23.98;54.18;100030.69;5113612;28;20414;-69
2022/08/08 08:49:59;;;;;;;13.38;7.53;;;;;;;23.95;53.96;100037.31;5112843;28;20103;-69
2022/08/08 08:52:25;;;;;;;13.40;7.30;;;;;;;23.87;53.88;100038.28;5113698;28;20114;-69
2022/08/08 08:54:55;;;;;;;9.60;6.00;;;;;;;23.81;54.08;100030.97;5113283;28;20036;-69
2022/08/08 08:57:22;;;;;;;8.95;7.20;;;;;;;23.85;53.91;100034.13;5112817;28;20055;-69
2022/08/08 08:59:49;;;;;;;9.93;7.10;;;;;;;23.90;54.13;100031.66;5112356;28;20140;-69
2022/08/08 09:02:25;;;;;;;11.18;6.00;;;;;;;23.99;53.94;100032.38;5112600;28;20040;-68
2022/08/08 09:04:55;;;;;;;10.68;6.30;;;;;;;24.02;53.87;100022.00;5113294;28;20035;-68
2022/08/08 09:07:23;;;;;;;11.52;6.72;;;;;;;24.05;53.67;100027.00;5113425;28;20042;-69
2022/08/08 09:09:51;;;;;;;11.45;6.63;;;;;;;24.02;53.42;100022.00;5112330;28;20432;-68
2022/08/08 09:12:20;;;;;;;10.18;7.50;;;;;;;23.98;53.34;100031.53;5109303;28;20036;-69
2022/08/08 09:14:52;;;;;;;10.68;6.85;;;;;;;23.91;53.64;100026.06;5112389;28;20430;-68
2022/08/08 09:17:17;;;;;;;15.85;6.65;;;;;;;23.88;53.58;100028.31;5111451;28;20039;-69
2022/08/08 09:19:43;;;;;;;12.90;7.18;;;;;;;23.85;53.51;100032.22;5112787;28;20032;-69
2022/08/08 09:22:12;;;;;;;10.32;7.50;;;;;;;23.88;53.92;100025.63;5110240;28;20034;-67
2022/08/08 09:24:38;;;;;;;10.90;7.72;;;;;;;23.87;53.65;100034.75;5109791;28;20055;-69
2022/08/08 09:27:11;;;;;;;21.88;7.65;;;;;;;23.80;53.98;100029.31;5112495;28;20032;-67
2022/08/08 09:30:32;;;;;;;12.13;6.38;;;;;;;23.86;53.47;100041.19;5176035;27;20239;-67
2022/08/08 09:32:58;;;;;;;11.68;8.15;;;;;;;23.90;53.78;100040.59;5153250;27;20528;-68
2022/08/08 09:35:29;;;;;;;11.30;5.97;;;;;;;23.92;53.49;100040.38;5150755;27;20381;-68
2022/08/08 09:38:02;;;;;;;9.82;6.72;;;;;;;23.95;53.31;100042.72;5146857;27;20088;-65
2022/08/08 09:40:30;;;;;;;11.88;8.65;;;;;;;23.95;53.91;100040.00;5129498;27;20038;-67
2022/08/08 09:43:27;;;;;;;18.13;6.72;;;;;;;24.01;53.92;100041.13;5146403;27;20658;-67
2022/08/08 09:45:59;;;;;;;15.25;6.63;;;;;;;24.09;53.95;100027.47;5141102;27;20027;-68
2022/08/08 09:48:29;;;;;;;6.22;5.20;;;;;;;24.21;53.90;100039.41;5143709;27;20063;-64
2022/08/08 09:50:57;;;;;;;12.00;7.35;;;;;;;24.29;53.23;100033.00;5148831;27;20038;-66
2022/08/08 09:53:32;;;;;;;12.02;5.97;;;;;;;24.36;53.03;100035.72;5149662;27;20089;-67
2022/08/08 09:55:58;;;;;;;16.90;7.85;;;;;;;24.35;53.05;100047.59;5149087;27;20022;-69
2022/08/08 09:58:27;;;;;;;14.13;5.75;;;;;;;24.28;52.99;100041.28;5147960;27;20041;-69
2022/08/08 10:00:55;;;;;;;12.82;6.38;;;;;;;24.23;53.20;100026.50;5151130;27;20058;-68
2022/08/08 10:03:26;;;;;;;19.88;7.53;;;;;;;24.16;53.04;100041.03;5150311;27;20034;-66
2022/08/08 10:05:52;;;;;;;12.45;7.03;;;;;;;24.17;53.25;100037.28;5148197;27;20499;-69
2022/08/08 10:08:17;;;;;;;8.73;7.38;;;;;;;24.21;52.91;100036.69;5148782;27;20039;-68
2022/08/08 10:10:43;;;;;;;10.20;7.80;;;;;;;24.17;52.91;100040.81;5143450;27;20031;-67
2022/08/08 10:13:19;;;;;;;13.23;6.05;;;;;;;24.13;53.34;100036.00;5140974;27;20034;-66
2022/08/08 10:15:46;;;;;;;8.38;6.30;;;;;;;24.12;53.33;100035.16;5150319;27;20039;-66
2022/08/08 10:18:12;;;;;;;9.98;5.47;;;;;;;24.19;53.23;100035.22;5144138;27;20042;-67
2022/08/08 10:20:47;;;;;;;7.50;5.57;;;;;;;24.24;53.11;100043.56;5146379;27;20039;-68
2022/08/08 10:23:17;;;;;;;7.78;5.00;;;;;;;24.29;52.73;100051.91;5147285;27;20397;-67
2022/08/08 10:25:44;;;;;;;9.60;6.20;;;;;;;24.29;52.76;100046.50;5150658;27;20118;-68
2022/08/08 10:28:19;;;;;;;12.48;8.30;;;;;;;24.26;52.46;100049.59;5145485;27;20031;-69
2022/08/08 10:30:57;;;;;;;8.00;5.15;;;;;;;24.17;52.97;100050.81;5137361;27;20034;-68
2022/08/08 10:33:31;;;;;;;15.75;6.20;;;;;;;24.23;52.71;100048.16;5149024;27;20405;-66
2022/08/08 10:36:03;;;;;;;9.50;6.00;;;;;;;24.16;52.88;100049.97;5131942;27;20027;-68
2022/08/08 10:38:30;;;;;;;12.15;6.93;;;;;;;23.92;53.38;100053.91;5145705;27;20090;-68
2022/08/08 10:41:01;;;;;;;8.70;5.20;;;;;;;23.90;53.43;100054.13;5142326;27;20117;-68
2022/08/08 10:43:37;;;;;;;8.77;5.47;;;;;;;24.04;52.82;100056.94;5136341;27;20045;-68
2022/08/08 10:46:02;;;;;;;7.90;5.93;;;;;;;24.04;52.83;100057.75;5136347;27;20087;-68
2022/08/08 10:48:32;;;;;;;7.75;5.70;;;;;;;23.89;53.05;100054.31;5117377;27;20038;-68
2022/08/08 10:50:58;;;;;;;8.30;5.22;;;;;;;23.59;53.63;100046.38;5136844;27;20477;-68
2022/08/08 10:53:33;;;;;;;7.78;4.70;;;;;;;23.52;54.11;100040.06;5136413;27;20034;-68
2022/08/08 10:55:59;;;;;;;5.85;4.20;;;;;;;23.59;53.74;100032.88;5135469;27;20029;-67
2022/08/08 10:58:27;;;;;;;5.57;4.28;;;;;;;23.69;53.47;100037.91;5115703;28;20027;-68
2022/08/08 11:00:54;;;;;;;7.47;4.90;;;;;;;23.81;53.31;100038.22;5133717;27;20030;-68
2022/08/08 11:03:20;;;;;;;5.55;4.03;;;;;;;23.85;53.21;100039.53;5135240;27;20414;-68
2022/08/08 11:05:50;;;;;;;11.25;5.10;;;;;;;23.85;53.15;100039.53;5135666;27;20118;-68
2022/08/08 11:08:27;;;;;;;7.35;4.75;;;;;;;23.88;52.92;100034.56;5135427;27;20105;-68
2022/08/08 11:11:06;;;;;;;8.38;5.45;;;;;;;23.89;52.84;100041.63;5135782;27;20038;-68
2022/08/08 11:13:39;;;;;;;7.72;5.22;;;;;;;23.77;53.31;100041.31;5135228;27;20035;-67
2022/08/08 11:16:11;;;;;;;6.05;5.00;;;;;;;23.76;53.12;100034.25;5136080;27;20027;-68
2022/08/08 11:18:38;;;;;;;9.90;6.30;;;;;;;23.83;52.99;100037.00;5135282;27;20034;-68
2022/08/08 11:21:06;;;;;;;7.45;5.70;;;;;;;23.80;53.02;100034.72;5135636;27;20026;-68
2022/08/08 11:23:33;;;;;;;10.23;6.80;;;;;;;23.83;53.30;100038.88;5135546;27;20042;-68
2022/08/08 11:26:06;;;;;;;7.05;6.03;;;;;;;23.77;53.32;100037.81;5135567;27;20066;-68
2022/08/08 11:28:36;;;;;;;6.53;5.25;;;;;;;23.80;53.30;100040.13;5117677;27;20048;-67
2022/08/08 11:31:03;;;;;;;9.57;6.00;;;;;;;23.74;53.39;100049.00;5120529;27;20047;-68
2022/08/08 11:33:31;;;;;;;6.90;5.38;;;;;;;23.67;53.54;100043.53;5135302;27;20038;-68
2022/08/08 11:35:56;;;;;;;9.35;6.05;;;;;;;23.69;53.25;100046.88;5134481;27;20078;-68
2022/08/08 11:38:24;;;;;;;9.73;4.97;;;;;;;23.78;52.92;100044.88;5133204;27;20038;-68
2022/08/08 11:40:51;;;;;;;9.38;5.68;;;;;;;23.84;53.07;100043.25;5134330;27;20043;-68
2022/08/08 11:43:18;;;;;;;6.53;5.32;;;;;;;23.87;52.81;100051.78;5134755;27;20127;-68
2022/08/08 11:45:47;;;;;;;7.78;5.70;;;;;;;23.90;52.84;100039.75;5134416;27;20030;-68
2022/08/08 11:48:15;;;;;;;6.82;5.78;;;;;;;23.95;52.49;100037.31;5134913;27;20034;-68
2022/08/08 11:50:41;;;;;;;9.32;5.97;;;;;;;23.96;52.60;100038.16;5134949;27;20031;-68
2022/08/08 11:53:08;;;;;;;6.07;4.60;;;;;;;23.93;52.47;100045.63;5133535;27;20124;-68
2022/08/08 11:55:36;;;;;;;6.47;5.13;;;;;;;23.98;52.64;100042.34;5135562;27;20023;-68
2022/08/08 11:58:08;;;;;;;5.88;5.28;;;;;;;23.95;52.46;100042.72;5134840;27;20083;-68
2022/08/08 12:00:41;;;;;;;6.72;5.30;;;;;;;23.90;52.33;100039.75;5124320;27;20034;-68